Time;durP1;ratioP1;P1;durP2;ratioP2;P2;SDS_P1;SDS_P2;PMS_P1;PMS_P2;Temp;Humidity;BMP_temperature;BMP_pressure;BME280_temperature;BME280_humidity;BME280_pressure;Samples;Min_cycle;Max_cycle;Signal;HPM_P1;HPM_P2
2024/04/23 00:01:55;;;;;;;3.75;2.30;;;3.90;99.90;;;;;;5436392;26;20472;-72
2024/04/23 00:04:20;;;;;;;2.78;2.08;;;3.90;99.90;;;;;;5434315;26;20006;-72
2024/04/23 00:06:55;;;;;;;3.35;2.47;;;3.90;99.90;;;;;;5433585;26;20350;-72
2024/04/23 00:09:21;;;;;;;2.97;2.15;;;3.90;99.90;;;;;;5428778;26;20080;-72
2024/04/23 00:11:47;;;;;;;2.83;1.92;;;3.90;99.90;;;;;;5434965;26;20006;-72
2024/04/23 00:14:13;;;;;;;2.20;1.80;;;3.80;99.90;;;;;;5430352;26;19999;-72
2024/04/23 00:16:39;;;;;;;2.92;1.92;;;3.80;99.90;;;;;;5434641;26;20035;-72
2024/04/23 00:19:05;;;;;;;2.70;1.60;;;3.70;99.90;;;;;;5434591;26;20007;-71
2024/04/23 00:21:30;;;;;;;3.35;2.28;;;3.70;99.90;;;;;;5437588;26;20538;-71
2024/04/23 00:23:56;;;;;;;2.38;1.67;;;3.70;99.90;;;;;;5430793;26;20010;-72
2024/04/23 00:26:22;;;;;;;2.92;1.90;;;3.70;99.90;;;;;;5432147;26;20042;-72
2024/04/23 00:28:48;;;;;;;3.45;2.30;;;3.70;99.90;;;;;;5435240;26;20378;-71
2024/04/23 00:31:13;;;;;;;5.07;2.63;;;3.70;99.90;;;;;;5435621;26;20461;-72
2024/04/23 00:33:39;;;;;;;3.42;2.03;;;3.70;99.90;;;;;;5426411;26;20646;-72
2024/04/23 00:36:05;;;;;;;2.80;2.00;;;3.70;99.90;;;;;;5436139;26;20454;-72
2024/04/23 00:38:31;;;;;;;2.67;1.90;;;3.70;99.90;;;;;;5431363;26;20411;-71
2024/04/23 00:40:57;;;;;;;3.45;1.83;;;3.70;99.90;;;;;;5433256;26;20011;-71
2024/04/23 00:43:22;;;;;;;2.40;1.70;;;3.60;99.90;;;;;;5436714;26;20022;-67
2024/04/23 00:45:55;;;;;;;2.53;2.20;;;3.60;99.90;;;;;;5432170;26;20031;-67
2024/04/23 00:48:22;;;;;;;2.97;1.73;;;3.60;99.90;;;;;;5431911;26;20003;-67
2024/04/23 00:50:49;;;;;;;4.22;1.85;;;3.60;99.90;;;;;;5430218;26;20006;-67
2024/04/23 00:53:15;;;;;;;3.28;2.33;;;3.50;99.90;;;;;;5434007;26;20088;-67
2024/04/23 00:55:42;;;;;;;2.25;1.77;;;3.50;99.90;;;;;;5436872;26;20015;-67
2024/04/23 00:58:08;;;;;;;3.53;2.38;;;3.40;99.90;;;;;;5435708;26;19994;-68
2024/04/23 01:00:35;;;;;;;2.63;1.60;;;3.40;99.90;;;;;;5430923;26;19995;-67
2024/04/23 01:03:00;;;;;;;3.90;2.20;;;3.40;99.90;;;;;;5433161;26;20003;-67
2024/04/23 01:05:27;;;;;;;3.88;2.25;;;3.30;99.90;;;;;;5433959;26;20006;-67
2024/04/23 01:07:52;;;;;;;3.95;2.05;;;3.30;99.90;;;;;;5432490;26;20013;-67
2024/04/23 01:10:18;;;;;;;3.13;2.25;;;3.30;99.90;;;;;;5428458;26;20075;-66
2024/04/23 01:12:44;;;;;;;3.38;2.25;;;3.20;99.90;;;;;;5430768;26;20465;-67
2024/04/23 01:15:13;;;;;;;3.35;1.73;;;3.20;99.90;;;;;;5430076;26;19999;-67
2024/04/23 01:17:39;;;;;;;3.63;1.92;;;3.20;99.90;;;;;;5432107;26;20067;-67
2024/04/23 01:20:11;;;;;;;5.47;2.25;;;3.20;99.90;;;;;;5429562;26;19995;-67
2024/04/23 01:23:02;;;;;;;3.15;2.25;;;3.20;99.90;;;;;;5432954;26;20013;-67
2024/04/23 01:25:29;;;;;;;4.22;1.90;;;3.10;99.90;;;;;;5431867;26;19995;-67
2024/04/23 01:27:56;;;;;;;2.42;1.90;;;3.20;99.90;;;;;;5433358;26;20492;-67
2024/04/23 01:30:23;;;;;;;2.47;2.00;;;3.10;99.90;;;;;;5434729;26;19999;-67
2024/04/23 01:32:50;;;;;;;3.08;1.90;;;3.10;99.90;;;;;;5437177;26;20035;-67
2024/04/23 01:35:17;;;;;;;2.08;1.45;;;3.10;99.90;;;;;;5430080;26;20013;-66
2024/04/23 01:37:50;;;;;;;2.83;1.85;;;3.10;99.90;;;;;;5435636;26;20006;-67
2024/04/23 01:40:17;;;;;;;1.85;1.63;;;3.10;99.90;;;;;;5430263;26;20050;-71
2024/04/23 01:42:43;;;;;;;3.30;2.40;;;3.10;99.90;;;;;;5432570;26;19999;-71
2024/04/23 01:45:15;;;;;;;2.78;2.17;;;3.10;99.90;;;;;;5433213;26;19999;-72
2024/04/23 01:47:44;;;;;;;2.78;2.08;;;3.10;99.90;;;;;;5435722;26;20003;-72
2024/04/23 01:50:11;;;;;;;3.25;2.00;;;3.00;99.90;;;;;;5436451;26;20009;-72
2024/04/23 01:52:37;;;;;;;2.45;1.77;;;3.00;99.90;;;;;;5436616;26;20010;-67
2024/04/23 01:55:04;;;;;;;3.42;2.05;;;3.00;99.90;;;;;;5428300;26;20039;-67
2024/04/23 01:57:30;;;;;;;3.53;2.15;;;3.00;99.90;;;;;;5434788;26;20002;-67
2024/04/23 02:00:07;;;;;;;1.98;1.50;;;2.90;99.90;;;;;;5434482;26;20657;-67
2024/04/23 02:02:35;;;;;;;3.28;1.90;;;2.90;99.90;;;;;;5433882;26;19995;-67
2024/04/23 02:05:01;;;;;;;4.45;2.60;;;2.80;99.90;;;;;;5429244;26;20038;-67
2024/04/23 02:07:27;;;;;;;5.03;2.28;;;2.70;99.90;;;;;;5434492;26;19998;-67
2024/04/23 02:09:53;;;;;;;3.10;2.00;;;2.70;99.90;;;;;;5432642;26;19994;-67
2024/04/23 02:12:23;;;;;;;3.10;1.88;;;2.70;99.90;;;;;;5435674;26;19999;-67
2024/04/23 02:14:48;;;;;;;3.17;2.00;;;2.70;99.90;;;;;;5433878;26;20010;-67
2024/04/23 02:17:16;;;;;;;3.13;1.63;;;2.70;99.90;;;;;;5430425;26;20067;-67
2024/04/23 02:19:43;;;;;;;4.40;2.28;;;2.70;99.90;;;;;;5428912;26;20006;-67
2024/04/23 02:22:08;;;;;;;2.75;1.95;;;2.70;99.90;;;;;;5432600;26;20003;-67
2024/04/23 02:24:34;;;;;;;2.58;1.88;;;2.70;99.90;;;;;;5426834;26;20412;-67
2024/04/23 02:27:00;;;;;;;1.75;1.40;;;2.70;99.90;;;;;;5433483;26;20891;-67
2024/04/23 02:29:29;;;;;;;4.13;1.65;;;2.60;99.90;;;;;;5432675;26;20010;-67
2024/04/23 02:32:00;;;;;;;3.00;2.00;;;2.60;99.90;;;;;;5435665;26;20003;-72
2024/04/23 02:34:26;;;;;;;3.00;2.03;;;2.60;99.90;;;;;;5432234;26;20011;-72
2024/04/23 02:36:53;;;;;;;1.70;1.52;;;2.60;99.90;;;;;;5436647;26;20051;-72
2024/04/23 02:39:19;;;;;;;2.97;1.95;;;2.60;99.90;;;;;;5438455;26;20007;-71
2024/04/23 02:41:52;;;;;;;2.80;1.67;;;2.60;99.90;;;;;;5438632;26;20013;-71
2024/04/23 02:44:19;;;;;;;3.60;2.45;;;2.60;99.90;;;;;;5432592;26;20003;-72
2024/04/23 02:46:45;;;;;;;2.13;1.80;;;2.60;99.90;;;;;;5439902;26;20023;-72
2024/04/23 02:49:10;;;;;;;3.67;2.00;;;2.60;99.90;;;;;;5436578;26;20003;-72
2024/04/23 02:51:54;;;;;;;4.07;2.17;;;2.60;99.90;;;;;;5433187;26;20004;-71
2024/04/23 02:54:20;;;;;;;3.30;2.42;;;2.60;99.90;;;;;;5428291;26;20013;-71
2024/04/23 02:56:48;;;;;;;2.92;2.17;;;2.50;99.90;;;;;;5436464;26;20040;-72
2024/04/23 02:59:15;;;;;;;3.72;2.17;;;2.50;99.90;;;;;;5433083;26;20003;-72
2024/04/23 03:01:40;;;;;;;2.95;1.77;;;2.60;99.90;;;;;;5435721;26;20530;-71
2024/04/23 03:04:06;;;;;;;4.15;2.60;;;2.50;99.90;;;;;;5423479;26;20017;-71
2024/04/23 03:06:32;;;;;;;4.50;2.13;;;2.60;99.90;;;;;;5437751;26;19996;-72
2024/04/23 03:08:58;;;;;;;4.20;2.25;;;2.60;99.90;;;;;;5434598;26;20013;-71
2024/04/23 03:11:24;;;;;;;2.28;1.92;;;2.50;99.90;;;;;;5434225;26;20067;-71
2024/04/23 03:13:49;;;;;;;2.97;2.03;;;2.60;99.90;;;;;;5425462;26;19995;-72
2024/04/23 03:16:15;;;;;;;3.42;2.10;;;2.60;99.90;;;;;;5433640;26;20003;-72
2024/04/23 03:18:41;;;;;;;3.63;2.22;;;2.60;99.90;;;;;;5435995;26;19995;-71
2024/04/23 03:21:07;;;;;;;3.58;2.05;;;2.50;99.90;;;;;;5433645;26;20002;-71
2024/04/23 03:23:32;;;;;;;2.55;2.08;;;2.50;99.90;;;;;;5430041;26;19995;-71
2024/04/23 03:25:58;;;;;;;3.55;2.35;;;2.50;99.90;;;;;;5433038;26;20003;-72
2024/04/23 03:28:24;;;;;;;4.35;1.95;;;2.50;99.90;;;;;;5431236;26;20081;-71
2024/04/23 03:30:50;;;;;;;5.10;2.20;;;2.50;99.90;;;;;;5436621;26;20013;-71
2024/04/23 03:33:15;;;;;;;3.42;2.08;;;2.50;99.90;;;;;;5430266;26;20008;-71
2024/04/23 03:35:41;;;;;;;2.42;1.98;;;2.50;99.90;;;;;;5431368;26;20003;-71
2024/04/23 03:38:07;;;;;;;3.80;2.22;;;2.50;99.90;;;;;;5432488;26;20535;-71
2024/04/23 03:40:32;;;;;;;4.68;2.00;;;2.50;99.90;;;;;;5428366;26;20002;-71
2024/04/23 03:42:58;;;;;;;3.10;2.33;;;2.50;99.90;;;;;;5433479;26;19998;-72
2024/04/23 03:45:24;;;;;;;4.15;2.20;;;2.50;99.90;;;;;;5432781;26;20461;-72
2024/04/23 03:47:50;;;;;;;4.00;2.10;;;2.50;99.90;;;;;;5436844;26;20454;-72
2024/04/23 03:50:15;;;;;;;4.43;2.22;;;2.40;99.90;;;;;;5431795;26;20055;-71
2024/04/23 03:52:41;;;;;;;3.40;2.55;;;2.40;99.90;;;;;;5433731;26;20071;-67
2024/04/23 03:55:07;;;;;;;2.30;1.85;;;2.40;99.90;;;;;;5439079;26;20011;-67
2024/04/23 03:57:33;;;;;;;4.32;2.63;;;2.40;99.90;;;;;;5438708;26;20468;-67
2024/04/23 03:59:59;;;;;;;4.00;2.40;;;2.40;99.90;;;;;;5432286;26;20063;-67
2024/04/23 04:07:53;;;;;;;4.95;2.58;;;2.50;99.90;;;;;;5432286;26;20018;-67
2024/04/23 04:10:19;;;;;;;3.17;2.15;;;2.50;99.90;;;;;;5436768;26;20470;-67
2024/04/23 04:12:45;;;;;;;4.10;2.65;;;2.50;99.90;;;;;;5428975;26;20064;-67
2024/04/23 04:15:11;;;;;;;3.58;2.38;;;2.50;99.90;;;;;;5439193;26;20010;-67
2024/04/23 04:17:36;;;;;;;3.05;2.28;;;2.50;99.90;;;;;;5430873;26;19998;-67
2024/04/23 04:20:02;;;;;;;5.22;2.35;;;2.50;99.90;;;;;;5432180;26;20014;-66
2024/04/23 04:22:28;;;;;;;5.00;2.80;;;2.50;99.90;;;;;;5433599;26;19990;-67
2024/04/23 04:24:53;;;;;;;3.75;2.25;;;2.50;99.90;;;;;;5435346;26;20007;-67
2024/04/23 04:27:19;;;;;;;6.30;2.72;;;2.60;99.90;;;;;;5433896;26;20381;-66
2024/04/23 04:29:45;;;;;;;3.20;2.03;;;2.60;99.90;;;;;;5438708;26;20087;-67
2024/04/23 04:32:11;;;;;;;2.90;2.40;;;2.60;99.90;;;;;;5435589;26;20016;-67
2024/04/23 04:34:36;;;;;;;3.20;2.33;;;2.60;99.90;;;;;;5430229;26;20097;-67
2024/04/23 04:37:02;;;;;;;4.18;2.58;;;2.60;99.90;;;;;;5438587;26;20006;-67
2024/04/23 04:39:28;;;;;;;4.53;2.40;;;2.60;99.90;;;;;;5436429;26;20006;-66
2024/04/23 04:41:59;;;;;;;3.53;2.45;;;2.70;99.90;;;;;;5432811;26;19998;-67
2024/04/23 04:44:25;;;;;;;2.80;2.15;;;2.70;99.90;;;;;;5430891;26;19999;-67
2024/04/23 04:46:51;;;;;;;5.22;2.70;;;2.70;99.90;;;;;;5431959;26;20066;-67
2024/04/23 04:49:16;;;;;;;5.95;2.60;;;2.70;99.90;;;;;;5433548;26;19995;-66
2024/04/23 04:51:42;;;;;;;3.70;2.47;;;2.70;99.90;;;;;;5433198;26;19995;-67
2024/04/23 04:54:08;;;;;;;5.90;2.63;;;2.70;99.90;;;;;;5432973;26;20023;-67
2024/04/23 04:56:33;;;;;;;5.35;3.05;;;2.80;99.90;;;;;;5429785;26;19998;-67
2024/04/23 04:58:59;;;;;;;5.57;3.28;;;2.80;99.90;;;;;;5431133;26;21323;-67
2024/04/23 05:01:25;;;;;;;4.47;2.97;;;2.90;99.90;;;;;;5430635;26;19991;-67
2024/04/23 05:03:51;;;;;;;4.45;2.70;;;2.90;99.90;;;;;;5431415;26;20026;-67
2024/04/23 05:06:16;;;;;;;4.15;3.05;;;2.90;99.90;;;;;;5433875;26;20009;-67
2024/04/23 05:08:42;;;;;;;4.63;3.20;;;3.00;99.90;;;;;;5436454;26;19994;-67
2024/04/23 05:11:08;;;;;;;5.45;3.83;;;3.00;99.90;;;;;;5432658;26;20013;-67
2024/04/23 05:13:34;;;;;;;6.55;3.50;;;3.20;99.90;;;;;;5435150;26;20075;-67
2024/04/23 05:16:00;;;;;;;9.25;4.53;;;3.40;99.90;;;;;;5434518;26;20328;-67
2024/04/23 05:18:25;;;;;;;22.40;8.57;;;3.50;99.90;;;;;;5437901;26;20486;-67
2024/04/23 05:20:51;;;;;;;25.25;8.93;;;3.70;99.90;;;;;;5427288;26;19999;-67
2024/04/23 05:23:17;;;;;;;13.80;6.00;;;3.90;99.90;;;;;;5434707;26;20342;-67
2024/04/23 05:25:43;;;;;;;18.63;5.68;;;4.00;99.90;;;;;;5431135;26;19999;-67
2024/04/23 05:28:08;;;;;;;14.32;5.70;;;4.20;99.90;;;;;;5435815;26;19995;-67
2024/04/23 05:33:18;;;;;;;10.18;5.55;;;4.50;99.90;;;;;;5434752;26;20903;-72
2024/04/23 05:35:44;;;;;;;10.02;5.88;;;4.60;99.90;;;;;;5436964;26;19995;-72
2024/04/23 05:38:10;;;;;;;12.90;6.75;;;4.70;99.90;;;;;;5436051;26;20009;-71
2024/04/23 05:40:36;;;;;;;11.27;5.82;;;4.80;99.90;;;;;;5433361;26;20445;-71
2024/04/23 05:43:02;;;;;;;11.75;5.38;;;4.90;99.90;;;;;;5430892;26;20458;-71
2024/04/23 05:45:27;;;;;;;11.00;6.00;;;5.00;99.90;;;;;;5428533;26;20028;-72
2024/04/23 05:48:31;;;;;;;12.00;7.30;;;5.10;99.90;;;;;;5435183;26;19992;-72
2024/04/23 05:51:53;;;;;;;12.07;6.88;;;5.50;99.90;;;;;;5435254;26;20018;-66
2024/04/23 05:55:15;;;;;;;10.32;6.72;;;6.00;99.90;;;;;;5431785;26;20014;-67
2024/04/23 05:57:54;;;;;;;8.82;4.75;;;6.40;99.90;;;;;;5432437;26;19999;-67
2024/04/23 06:00:20;;;;;;;9.02;4.55;;;6.70;99.90;;;;;;5426982;26;20010;-67
2024/04/23 06:02:46;;;;;;;9.38;4.85;;;7.10;99.90;;;;;;5428985;26;19999;-67
2024/04/23 06:05:11;;;;;;;9.70;5.57;;;7.70;99.90;;;;;;5434316;26;20067;-67
2024/04/23 06:07:37;;;;;;;6.57;4.47;;;8.30;98.80;;;;;;5436888;26;20006;-67
2024/04/23 06:10:04;;;;;;;4.80;3.67;;;8.80;98.20;;;;;;5437432;26;20018;-67
2024/04/23 06:12:30;;;;;;;7.72;4.22;;;9.40;97.70;;;;;;5434725;26;20007;-67
2024/04/23 06:14:56;;;;;;;5.03;3.38;;;9.90;95.40;;;;;;5434745;26;20789;-67
2024/04/23 06:17:23;;;;;;;5.15;3.25;;;10.10;95.10;;;;;;5430555;26;20071;-68
2024/04/23 06:19:50;;;;;;;6.65;3.67;;;10.40;94.60;;;;;;5437905;26;20142;-71
2024/04/23 06:22:20;;;;;;;4.88;3.63;;;11.00;92.50;;;;;;5434674;26;20077;-71
2024/04/23 06:24:47;;;;;;;6.47;3.10;;;11.50;91.20;;;;;;5438946;26;20011;-72
2024/04/23 06:27:16;;;;;;;4.70;3.35;;;11.80;90.20;;;;;;5437108;26;20010;-71
2024/04/23 06:29:42;;;;;;;8.32;3.83;;;11.90;87.90;;;;;;5438175;26;20002;-71
2024/04/23 06:32:08;;;;;;;7.68;3.92;;;11.70;87.40;;;;;;5432958;26;20843;-71
2024/04/23 06:34:34;;;;;;;4.30;3.13;;;11.70;87.60;;;;;;5437395;26;20003;-71
2024/04/23 06:37:00;;;;;;;5.90;3.85;;;11.70;86.60;;;;;;5439357;26;20021;-72
2024/04/23 06:39:26;;;;;;;5.00;3.05;;;11.90;86.00;;;;;;5438195;26;19995;-71
2024/04/23 06:41:52;;;;;;;5.00;3.25;;;11.90;85.10;;;;;;5432988;26;20010;-72
2024/04/23 06:44:18;;;;;;;6.95;3.30;;;12.00;83.20;;;;;;5434409;26;19998;-72
2024/04/23 06:46:43;;;;;;;4.40;2.78;;;12.00;83.70;;;;;;5438333;26;19999;-72
2024/04/23 06:49:09;;;;;;;5.05;3.10;;;11.80;83.00;;;;;;5439387;26;20054;-72
2024/04/23 06:51:35;;;;;;;3.78;2.92;;;11.50;84.80;;;;;;5435954;26;20352;-71
2024/04/23 06:54:01;;;;;;;4.78;2.63;;;11.30;85.80;;;;;;5438556;26;20462;-71
2024/04/23 06:56:27;;;;;;;3.65;2.05;;;11.20;86.10;;;;;;5437884;26;20042;-71
2024/04/23 06:58:52;;;;;;;3.53;2.35;;;11.30;85.50;;;;;;5436529;26;20356;-71
2024/04/23 07:01:18;;;;;;;3.13;1.67;;;11.30;83.10;;;;;;5435049;26;20346;-71
2024/04/23 07:03:44;;;;;;;3.17;2.17;;;11.40;81.70;;;;;;5427700;26;19994;-71
2024/04/23 07:06:10;;;;;;;3.50;2.22;;;11.50;81.50;;;;;;5436864;26;20852;-71
2024/04/23 07:08:35;;;;;;;3.78;2.25;;;11.70;81.00;;;;;;5437806;26;20003;-71
2024/04/23 07:11:01;;;;;;;3.00;2.20;;;11.70;80.60;;;;;;5436815;26;19998;-72
2024/04/23 07:13:27;;;;;;;3.63;2.00;;;11.70;80.30;;;;;;5436188;26;20005;-71
2024/04/23 07:15:53;;;;;;;3.95;2.42;;;11.80;81.10;;;;;;5426832;26;19995;-72
2024/04/23 07:18:18;;;;;;;3.38;1.88;;;11.80;81.20;;;;;;5432672;26;20010;-71
2024/04/23 07:20:44;;;;;;;2.42;1.88;;;11.80;81.50;;;;;;5434459;26;19994;-71
2024/04/23 07:23:10;;;;;;;2.83;2.00;;;11.60;80.10;;;;;;5436856;26;19990;-71
2024/04/23 07:25:36;;;;;;;4.22;2.53;;;11.30;79.90;;;;;;5436673;26;20023;-71
2024/04/23 07:28:01;;;;;;;3.67;2.30;;;11.20;80.70;;;;;;5435169;26;19999;-71
2024/04/23 07:30:27;;;;;;;3.55;1.95;;;11.30;80.60;;;;;;5436449;26;20112;-71
2024/04/23 07:32:54;;;;;;;3.08;1.85;;;11.60;81.00;;;;;;5427429;26;20525;-71
2024/04/23 07:35:24;;;;;;;2.53;1.70;;;11.80;78.40;;;;;;5418397;26;20000;-67
2024/04/23 07:37:51;;;;;;;3.90;1.90;;;12.10;79.00;;;;;;5422968;26;20032;-67
2024/04/23 07:40:17;;;;;;;2.78;2.03;;;12.30;76.10;;;;;;5406988;26;19995;-66
2024/04/23 07:42:44;;;;;;;3.70;2.30;;;12.20;76.60;;;;;;5427211;26;19999;-68
2024/04/23 07:45:10;;;;;;;2.33;1.75;;;12.10;78.80;;;;;;5429928;26;19995;-67
2024/04/23 07:47:36;;;;;;;2.70;1.95;;;12.10;80.00;;;;;;5427386;26;19995;-67
2024/04/23 07:50:02;;;;;;;3.47;1.70;;;12.20;79.90;;;;;;5417863;26;20458;-67
2024/04/23 07:52:28;;;;;;;2.80;1.73;;;12.20;79.60;;;;;;5425706;26;20003;-66
2024/04/23 07:54:54;;;;;;;3.70;1.90;;;12.40;74.60;;;;;;5438150;26;20009;-68
2024/04/23 07:57:20;;;;;;;3.85;2.08;;;12.60;73.30;;;;;;5422214;26;19994;-68
2024/04/23 07:59:46;;;;;;;2.13;1.48;;;12.60;71.50;;;;;;5418649;26;21038;-67
2024/04/23 08:02:12;;;;;;;1.70;1.38;;;12.40;72.60;;;;;;5414806;26;20071;-67
2024/04/23 08:04:38;;;;;;;2.42;1.42;;;12.30;73.60;;;;;;5419201;20;20023;-67
2024/04/23 08:07:04;;;;;;;5.45;2.63;;;12.30;73.60;;;;;;5379266;26;20012;-67
2024/04/23 08:09:30;;;;;;;2.50;1.60;;;12.40;73.60;;;;;;5376751;26;20007;-67
2024/04/23 08:11:56;;;;;;;5.20;3.20;;;12.40;71.20;;;;;;5388583;26;20004;-67
2024/04/23 08:14:21;;;;;;;3.60;1.45;;;12.50;71.00;;;;;;5369236;26;20000;-68
2024/04/23 08:16:47;;;;;;;2.15;1.60;;;12.40;68.30;;;;;;5345422;26;20564;-68
2024/04/23 08:19:14;;;;;;;4.00;1.90;;;12.40;70.00;;;;;;5351555;26;20015;-67
2024/04/23 08:21:40;;;;;;;5.03;3.20;;;12.10;71.20;;;;;;5381660;26;20015;-68
2024/04/23 08:24:06;;;;;;;6.18;3.90;;;12.00;72.90;;;;;;5366871;26;20447;-68
2024/04/23 08:26:32;;;;;;;4.60;3.10;;;12.00;73.20;;;;;;5382910;26;20013;-66
2024/04/23 08:28:58;;;;;;;3.85;2.08;;;11.90;72.40;;;;;;5364448;26;20001;-67
2024/04/23 08:31:25;;;;;;;1.92;1.60;;;11.80;72.30;;;;;;5351286;26;20080;-72
2024/04/23 08:33:51;;;;;;;4.60;3.25;;;11.80;71.80;;;;;;5367851;26;19993;-67
2024/04/23 08:36:17;;;;;;;2.85;2.20;;;11.90;71.80;;;;;;5377276;26;20022;-66
2024/04/23 08:38:43;;;;;;;5.18;3.60;;;11.80;72.60;;;;;;5370555;26;20439;-66
2024/04/23 08:41:15;;;;;;;2.17;1.98;;;11.70;74.70;;;;;;5351968;26;20032;-66
2024/04/23 08:43:55;;;;;;;2.53;1.88;;;11.80;73.00;;;;;;5388956;26;20459;-68
2024/04/23 08:46:22;;;;;;;2.95;1.92;;;11.80;70.20;;;;;;5359290;26;19991;-67
2024/04/23 08:48:48;;;;;;;2.05;1.85;;;11.80;66.90;;;;;;5369914;26;20058;-67
2024/04/23 08:51:15;;;;;;;2.33;1.50;;;11.90;65.70;;;;;;5378127;26;20084;-66
2024/04/23 08:53:41;;;;;;;6.25;2.67;;;12.00;70.60;;;;;;5365652;26;19997;-67
2024/04/23 08:56:12;;;;;;;2.90;1.88;;;12.10;70.30;;;;;;5368659;26;20439;-67
2024/04/23 08:58:40;;;;;;;4.38;1.55;;;12.20;67.10;;;;;;5364620;26;20076;-67
2024/04/23 09:01:08;;;;;;;1.67;1.58;;;12.30;69.30;;;;;;5381222;26;20000;-67
2024/04/23 09:03:47;;;;;;;3.30;1.50;;;12.40;67.00;;;;;;5350604;26;20008;-67
2024/04/23 09:06:13;;;;;;;3.35;2.25;;;12.60;65.30;;;;;;5383746;26;20031;-67
2024/04/23 09:08:39;;;;;;;4.05;2.90;;;12.80;67.10;;;;;;5380665;26;20435;-67
2024/04/23 09:11:05;;;;;;;2.33;1.80;;;13.00;68.00;;;;;;5362797;26;20015;-67
2024/04/23 09:13:31;;;;;;;3.13;1.80;;;13.40;65.70;;;;;;5369674;26;20368;-66
2024/04/23 09:15:58;;;;;;;5.50;2.40;;;13.70;63.00;;;;;;5349191;26;20001;-67
2024/04/23 09:18:24;;;;;;;3.63;1.83;;;14.10;65.20;;;;;;5367373;26;19997;-67
2024/04/23 09:20:50;;;;;;;3.10;1.88;;;14.40;61.20;;;;;;5389142;26;20045;-67
2024/04/23 09:23:17;;;;;;;2.97;1.88;;;14.40;62.00;;;;;;5371514;26;20005;-66
2024/04/23 09:25:43;;;;;;;3.05;2.30;;;14.20;59.60;;;;;;5376954;26;20107;-66
2024/04/23 09:28:20;;;;;;;1.50;1.40;;;14.10;60.40;;;;;;5350136;26;20459;-66
2024/04/23 09:30:46;;;;;;;3.13;1.98;;;13.90;62.80;;;;;;5381753;26;20578;-66
2024/04/23 09:33:12;;;;;;;2.97;1.85;;;13.90;59.70;;;;;;5381577;26;20032;-66
2024/04/23 09:35:38;;;;;;;3.42;2.20;;;13.70;59.50;;;;;;5373673;26;20321;-67
2024/04/23 09:38:05;;;;;;;2.97;2.10;;;13.70;58.20;;;;;;5380410;26;20004;-67
2024/04/23 09:40:40;;;;;;;2.42;1.63;;;13.60;59.20;;;;;;5364501;26;19997;-67
2024/04/23 09:43:06;;;;;;;2.17;1.80;;;13.60;57.40;;;;;;5382327;26;20432;-66
2024/04/23 09:45:32;;;;;;;3.10;1.85;;;13.80;56.50;;;;;;5373205;26;19997;-67
2024/04/23 09:47:58;;;;;;;3.13;1.90;;;13.80;59.50;;;;;;5359007;26;20001;-67
2024/04/23 09:50:29;;;;;;;2.67;1.70;;;13.70;61.60;;;;;;5362666;26;20760;-67
2024/04/23 09:53:03;;;;;;;2.55;1.60;;;13.60;61.70;;;;;;5375981;26;20001;-67
2024/04/23 09:55:29;;;;;;;4.00;1.90;;;13.40;60.00;;;;;;5360368;26;20013;-67
2024/04/23 09:57:55;;;;;;;3.03;1.58;;;13.40;62.40;;;;;;5362898;26;20544;-67
2024/04/23 10:00:21;;;;;;;2.88;2.10;;;13.60;59.80;;;;;;5378193;26;20085;-66
2024/04/23 10:02:55;;;;;;;3.17;1.60;;;13.80;59.80;;;;;;5370862;26;19995;-67
2024/04/23 10:05:29;;;;;;;3.17;1.70;;;13.70;59.60;;;;;;5376885;26;20460;-67
2024/04/23 10:08:08;;;;;;;2.53;1.67;;;13.50;58.70;;;;;;5379188;26;20062;-67
2024/04/23 10:10:42;;;;;;;2.70;2.17;;;13.30;61.60;;;;;;5365751;26;20005;-66
2024/04/23 10:13:09;;;;;;;2.97;1.67;;;13.00;62.10;;;;;;5372130;26;20004;-67
2024/04/23 10:15:40;;;;;;;3.80;1.83;;;13.00;63.00;;;;;;5385083;26;20014;-66
2024/04/23 10:18:20;;;;;;;1.95;1.60;;;13.20;62.70;;;;;;5376828;26;20017;-67
2024/04/23 10:20:48;;;;;;;2.13;1.90;;;13.50;62.40;;;;;;5383659;26;20038;-67
2024/04/23 10:23:18;;;;;;;4.35;2.67;;;13.90;60.70;;;;;;5386190;26;20081;-68
2024/04/23 10:25:46;;;;;;;2.30;1.98;;;13.90;61.10;;;;;;5373404;26;20007;-67
2024/04/23 10:28:13;;;;;;;5.18;3.97;;;13.80;59.40;;;;;;5376560;26;20508;-67
2024/04/23 10:30:40;;;;;;;2.63;1.90;;;13.70;59.80;;;;;;5368535;26;20007;-67
2024/04/23 10:33:08;;;;;;;1.70;1.50;;;13.40;59.30;;;;;;5368524;26;20014;-68
2024/04/23 10:35:34;;;;;;;4.40;2.65;;;13.30;61.30;;;;;;5364011;26;19999;-67
2024/04/23 10:38:00;;;;;;;2.30;1.95;;;13.30;61.30;;;;;;5370253;26;20019;-67
2024/04/23 10:40:27;;;;;;;2.95;1.70;;;13.20;62.00;;;;;;5372123;26;20040;-67
2024/04/23 10:42:55;;;;;;;2.35;1.90;;;13.20;59.60;;;;;;5371587;26;20039;-68
2024/04/23 10:45:22;;;;;;;2.55;1.63;;;13.20;60.30;;;;;;5379412;26;20000;-67
2024/04/23 10:47:51;;;;;;;2.40;1.88;;;13.10;59.20;;;;;;5382413;26;20010;-67
2024/04/23 10:50:28;;;;;;;2.72;2.00;;;13.30;61.70;;;;;;5374684;26;20028;-67
2024/04/23 10:52:57;;;;;;;2.88;1.85;;;13.40;60.70;;;;;;5364361;26;20015;-67
2024/04/23 10:55:25;;;;;;;1.60;1.50;;;13.40;58.60;;;;;;5379605;26;20003;-66
2024/04/23 10:57:52;;;;;;;2.70;1.90;;;13.50;60.60;;;;;;5362581;26;19997;-67
2024/04/23 11:00:25;;;;;;;2.45;1.48;;;13.70;58.50;;;;;;5367385;26;20001;-67
2024/04/23 11:02:52;;;;;;;2.70;1.60;;;13.90;58.60;;;;;;5348404;26;19992;-67
2024/04/23 11:05:18;;;;;;;1.70;1.60;;;13.90;56.20;;;;;;5387912;26;20000;-67
2024/04/23 11:07:54;;;;;;;2.95;2.00;;;13.90;58.20;;;;;;5385558;26;20410;-66
2024/04/23 11:10:20;;;;;;;3.58;2.30;;;13.90;57.60;;;;;;5372427;26;20005;-66
2024/04/23 11:12:46;;;;;;;2.35;1.77;;;13.90;57.50;;;;;;5374972;26;20073;-67
2024/04/23 11:15:18;;;;;;;2.60;1.55;;;13.90;57.10;;;;;;5365111;26;19995;-66
2024/04/23 11:17:44;;;;;;;1.75;1.30;;;14.00;56.30;;;;;;5365043;26;19993;-71
2024/04/23 11:20:10;;;;;;;1.55;1.30;;;13.90;57.30;;;;;;5360819;26;20851;-67
2024/04/23 11:22:50;;;;;;;1.90;1.58;;;13.90;58.00;;;;;;5368775;26;20015;-68
2024/04/23 11:25:28;;;;;;;2.15;1.85;;;13.80;59.30;;;;;;5368287;26;20001;-68
2024/04/23 11:27:54;;;;;;;2.85;2.15;;;13.80;58.60;;;;;;5363873;26;20070;-69
2024/04/23 11:30:20;;;;;;;4.78;1.60;;;13.50;57.90;;;;;;5388149;26;20693;-70
2024/04/23 11:32:47;;;;;;;3.72;1.80;;;13.50;54.70;;;;;;5360998;26;20082;-66
2024/04/23 11:35:13;;;;;;;2.40;1.90;;;13.40;56.00;;;;;;5368272;26;20444;-67
2024/04/23 11:37:39;;;;;;;3.20;2.17;;;13.40;57.60;;;;;;5367149;26;20000;-66
2024/04/23 11:40:06;;;;;;;2.50;1.70;;;13.40;57.00;;;;;;5381651;26;19999;-66
2024/04/23 11:42:33;;;;;;;4.40;1.63;;;13.50;56.20;;;;;;5383143;26;20040;-67
2024/04/23 11:45:00;;;;;;;1.70;1.40;;;13.50;55.60;;;;;;5367434;26;20010;-67
2024/04/23 11:47:27;;;;;;;1.67;1.40;;;13.40;56.50;;;;;;5349326;26;20446;-67
2024/04/23 11:49:53;;;;;;;1.58;1.27;;;13.40;54.60;;;;;;5355464;26;20527;-67
2024/04/23 11:52:21;;;;;;;1.95;1.58;;;13.40;55.60;;;;;;5385327;26;19999;-66
2024/04/23 11:54:48;;;;;;;2.30;1.58;;;13.50;58.50;;;;;;5372310;26;20016;-67
2024/04/23 11:57:15;;;;;;;3.17;1.50;;;13.60;56.40;;;;;;5353653;26;20056;-64
2024/04/23 11:59:45;;;;;;;4.53;1.58;;;13.40;56.50;;;;;;5367987;26;19995;-67
2024/04/23 12:02:11;;;;;;;2.35;1.80;;;13.40;56.80;;;;;;5391267;26;19991;-67
2024/04/23 12:04:38;;;;;;;1.77;1.30;;;13.30;56.50;;;;;;5369357;26;20917;-68
2024/04/23 12:07:05;;;;;;;2.83;1.50;;;13.40;56.60;;;;;;5387074;26;20013;-67
2024/04/23 12:09:31;;;;;;;3.83;1.80;;;13.50;56.60;;;;;;5374868;26;20072;-66
2024/04/23 12:11:58;;;;;;;2.75;1.55;;;13.70;57.20;;;;;;5360446;26;20005;-68
2024/04/23 12:14:28;;;;;;;2.10;1.65;;;13.80;54.30;;;;;;5376326;26;20556;-67
2024/04/23 12:17:04;;;;;;;2.17;1.75;;;13.80;55.60;;;;;;5370928;26;20003;-68
2024/04/23 12:19:30;;;;;;;2.55;1.52;;;13.90;56.20;;;;;;5375725;26;19992;-66
2024/04/23 12:21:58;;;;;;;2.15;1.42;;;14.00;53.20;;;;;;5381638;26;19999;-67
2024/04/23 12:24:25;;;;;;;3.10;1.60;;;13.90;54.80;;;;;;5374233;26;20004;-67
2024/04/23 12:26:51;;;;;;;1.92;1.50;;;13.80;55.30;;;;;;5348539;26;20016;-66
2024/04/23 12:29:28;;;;;;;2.50;1.70;;;13.80;54.60;;;;;;5351245;26;20699;-67
2024/04/23 12:32:03;;;;;;;3.00;1.52;;;13.80;52.60;;;;;;5376163;26;20011;-67
2024/04/23 12:34:29;;;;;;;1.80;1.38;;;13.80;54.80;;;;;;5370880;26;20456;-67
2024/04/23 12:36:55;;;;;;;2.20;1.80;;;13.80;55.70;;;;;;5343275;26;19997;-67
2024/04/23 12:39:20;;;;;;;2.55;1.80;;;13.80;54.10;;;;;;5381140;26;20015;-67
2024/04/23 12:41:46;;;;;;;1.98;1.77;;;13.70;55.60;;;;;;5376028;26;20349;-66
2024/04/23 12:44:16;;;;;;;2.53;1.60;;;13.70;56.40;;;;;;5381230;26;20036;-67
2024/04/23 12:46:42;;;;;;;2.40;1.80;;;13.80;56.00;;;;;;5360702;26;20937;-67
2024/04/23 12:49:09;;;;;;;2.50;1.70;;;13.80;55.20;;;;;;5365372;26;20004;-67
2024/04/23 12:51:35;;;;;;;3.60;1.83;;;13.70;54.80;;;;;;5360985;26;20000;-67
2024/04/23 12:54:06;;;;;;;3.13;1.73;;;13.60;53.60;;;;;;5353131;26;19997;-68
2024/04/23 12:56:32;;;;;;;2.63;1.80;;;13.70;56.60;;;;;;5342164;26;20759;-68
2024/04/23 12:58:58;;;;;;;2.70;1.73;;;13.80;56.20;;;;;;5372841;26;19996;-67
2024/04/23 13:01:24;;;;;;;2.10;1.88;;;13.90;53.70;;;;;;5381742;26;20000;-68